sensor_id;sensor_type;location;lat;lon;timestamp;P1;durP1;ratioP1;P2;durP2;ratioP2
45784;SDS011;31489;51.404;5.474;2023-03-01T00:01:23;5.50;;;4.82;;
45784;SDS011;31489;51.404;5.474;2023-03-01T00:03:51;6.07;;;4.30;;
45784;SDS011;31489;51.404;5.474;2023-03-01T00:06:17;5.30;;;4.30;;
45784;SDS011;31489;51.404;5.474;2023-03-01T00:08:43;9.85;;;4.70;;
45784;SDS011;31489;51.404;5.474;2023-03-01T00:11:11;6.95;;;4.47;;
45784;SDS011;31489;51.404;5.474;2023-03-01T00:13:39;7.95;;;4.60;;
45784;SDS011;31489;51.404;5.474;2023-03-01T00:16:07;10.52;;;4.97;;
45784;SDS011;31489;51.404;5.474;2023-03-01T00:18:34;9.98;;;4.78;;
45784;SDS011;31489;51.404;5.474;2023-03-01T00:21:00;6.93;;;4.57;;
45784;SDS011;31489;51.404;5.474;2023-03-01T00:23:26;5.70;;;4.45;;
45784;SDS011;31489;51.404;5.474;2023-03-01T00:25:53;8.23;;;4.90;;
45784;SDS011;31489;51.404;5.474;2023-03-01T00:28:19;7.85;;;5.32;;
45784;SDS011;31489;51.404;5.474;2023-03-01T00:30:45;7.70;;;5.35;;
45784;SDS011;31489;51.404;5.474;2023-03-01T00:33:11;6.40;;;4.82;;
45784;SDS011;31489;51.404;5.474;2023-03-01T00:35:37;6.90;;;4.80;;
45784;SDS011;31489;51.404;5.474;2023-03-01T00:38:03;7.00;;;5.03;;
45784;SDS011;31489;51.404;5.474;2023-03-01T00:40:30;5.22;;;4.28;;
45784;SDS011;31489;51.404;5.474;2023-03-01T00:42:58;6.40;;;5.07;;
45784;SDS011;31489;51.404;5.474;2023-03-01T00:45:24;8.10;;;4.88;;
45784;SDS011;31489;51.404;5.474;2023-03-01T00:47:50;8.55;;;5.13;;
45784;SDS011;31489;51.404;5.474;2023-03-01T00:50:16;6.95;;;4.97;;
45784;SDS011;31489;51.404;5.474;2023-03-01T00:52:42;8.77;;;5.10;;
45784;SDS011;31489;51.404;5.474;2023-03-01T00:55:09;6.78;;;5.15;;
45784;SDS011;31489;51.404;5.474;2023-03-01T00:57:35;7.55;;;5.35;;
45784;SDS011;31489;51.404;5.474;2023-03-01T01:00:00;8.75;;;5.78;;
45784;SDS011;31489;51.404;5.474;2023-03-01T01:02:26;8.40;;;5.25;;
45784;SDS011;31489;51.404;5.474;2023-03-01T01:04:52;6.85;;;5.30;;
45784;SDS011;31489;51.404;5.474;2023-03-01T01:07:17;6.32;;;4.93;;
45784;SDS011;31489;51.404;5.474;2023-03-01T01:09:45;7.00;;;5.00;;
45784;SDS011;31489;51.404;5.474;2023-03-01T01:12:11;6.88;;;4.75;;
45784;SDS011;31489;51.404;5.474;2023-03-01T01:14:37;7.63;;;5.47;;
45784;SDS011;31489;51.404;5.474;2023-03-01T01:17:03;6.57;;;5.05;;
45784;SDS011;31489;51.404;5.474;2023-03-01T01:19:29;6.47;;;5.05;;
45784;SDS011;31489;51.404;5.474;2023-03-01T01:21:54;6.05;;;5.25;;
45784;SDS011;31489;51.404;5.474;2023-03-01T01:24:20;6.53;;;4.82;;
45784;SDS011;31489;51.404;5.474;2023-03-01T01:26:46;10.18;;;5.28;;
45784;SDS011;31489;51.404;5.474;2023-03-01T01:29:12;7.47;;;5.07;;
45784;SDS011;31489;51.404;5.474;2023-03-01T01:31:38;7.57;;;5.28;;
45784;SDS011;31489;51.404;5.474;2023-03-01T01:34:06;6.97;;;5.25;;
45784;SDS011;31489;51.404;5.474;2023-03-01T01:36:34;7.20;;;4.88;;
45784;SDS011;31489;51.404;5.474;2023-03-01T01:38:59;8.20;;;4.68;;
45784;SDS011;31489;51.404;5.474;2023-03-01T01:41:26;7.47;;;5.30;;
45784;SDS011;31489;51.404;5.474;2023-03-01T01:46:42;6.35;;;4.38;;
45784;SDS011;31489;51.404;5.474;2023-03-01T01:57:06;6.28;;;4.30;;
45784;SDS011;31489;51.404;5.474;2023-03-01T01:59:36;5.35;;;4.22;;
45784;SDS011;31489;51.404;5.474;2023-03-01T02:02:03;6.75;;;4.70;;
45784;SDS011;31489;51.404;5.474;2023-03-01T02:04:30;7.85;;;4.63;;
45784;SDS011;31489;51.404;5.474;2023-03-01T02:06:58;7.25;;;4.85;;
45784;SDS011;31489;51.404;5.474;2023-03-01T02:09:54;5.45;;;4.38;;
45784;SDS011;31489;51.404;5.474;2023-03-01T02:12:20;5.88;;;4.40;;
45784;SDS011;31489;51.404;5.474;2023-03-01T02:14:48;5.30;;;4.25;;
45784;SDS011;31489;51.404;5.474;2023-03-01T02:17:15;6.40;;;4.47;;
45784;SDS011;31489;51.404;5.474;2023-03-01T02:22:24;6.25;;;4.32;;
45784;SDS011;31489;51.404;5.474;2023-03-01T02:30:33;6.93;;;4.50;;
45784;SDS011;31489;51.404;5.474;2023-03-01T02:32:59;7.88;;;4.13;;
45784;SDS011;31489;51.404;5.474;2023-03-01T02:35:36;7.32;;;5.18;;
45784;SDS011;31489;51.404;5.474;2023-03-01T02:38:03;7.68;;;4.75;;
45784;SDS011;31489;51.404;5.474;2023-03-01T02:40:33;8.05;;;4.85;;
45784;SDS011;31489;51.404;5.474;2023-03-01T02:43:01;6.70;;;4.57;;
45784;SDS011;31489;51.404;5.474;2023-03-01T02:45:30;7.20;;;4.90;;
45784;SDS011;31489;51.404;5.474;2023-03-01T02:47:56;5.90;;;4.45;;
45784;SDS011;31489;51.404;5.474;2023-03-01T02:53:05;6.35;;;4.80;;
45784;SDS011;31489;51.404;5.474;2023-03-01T02:55:37;6.10;;;4.43;;
45784;SDS011;31489;51.404;5.474;2023-03-01T02:58:03;6.57;;;4.90;;
45784;SDS011;31489;51.404;5.474;2023-03-01T03:00:31;5.80;;;4.18;;
45784;SDS011;31489;51.404;5.474;2023-03-01T03:03:04;6.60;;;4.47;;
45784;SDS011;31489;51.404;5.474;2023-03-01T03:05:31;5.80;;;4.60;;
45784;SDS011;31489;51.404;5.474;2023-03-01T03:07:57;7.38;;;4.30;;
45784;SDS011;31489;51.404;5.474;2023-03-01T03:10:29;6.93;;;4.45;;
45784;SDS011;31489;51.404;5.474;2023-03-01T03:12:58;5.15;;;4.20;;
45784;SDS011;31489;51.404;5.474;2023-03-01T03:15:26;6.47;;;4.80;;
45784;SDS011;31489;51.404;5.474;2023-03-01T03:17:54;5.63;;;4.70;;
45784;SDS011;31489;51.404;5.474;2023-03-01T03:20:22;8.63;;;4.57;;
45784;SDS011;31489;51.404;5.474;2023-03-01T03:22:51;5.85;;;4.63;;
45784;SDS011;31489;51.404;5.474;2023-03-01T03:25:18;8.65;;;5.05;;
45784;SDS011;31489;51.404;5.474;2023-03-01T03:27:45;6.85;;;5.00;;
45784;SDS011;31489;51.404;5.474;2023-03-01T03:30:13;8.45;;;5.10;;
45784;SDS011;31489;51.404;5.474;2023-03-01T03:32:41;6.60;;;5.00;;
45784;SDS011;31489;51.404;5.474;2023-03-01T03:35:17;5.53;;;4.65;;
45784;SDS011;31489;51.404;5.474;2023-03-01T03:37:44;9.10;;;4.97;;
45784;SDS011;31489;51.404;5.474;2023-03-01T03:40:33;7.43;;;5.13;;
45784;SDS011;31489;51.404;5.474;2023-03-01T03:42:59;8.50;;;4.78;;
45784;SDS011;31489;51.404;5.474;2023-03-01T03:45:25;7.78;;;5.10;;
45784;SDS011;31489;51.404;5.474;2023-03-01T03:47:51;7.25;;;5.05;;
45784;SDS011;31489;51.404;5.474;2023-03-01T03:50:17;6.57;;;4.57;;
45784;SDS011;31489;51.404;5.474;2023-03-01T03:52:43;9.85;;;5.00;;
45784;SDS011;31489;51.404;5.474;2023-03-01T03:55:09;7.85;;;5.57;;
45784;SDS011;31489;51.404;5.474;2023-03-01T03:57:42;6.28;;;4.82;;
45784;SDS011;31489;51.404;5.474;2023-03-01T04:00:10;9.85;;;4.63;;
45784;SDS011;31489;51.404;5.474;2023-03-01T04:02:42;6.63;;;5.20;;
45784;SDS011;31489;51.404;5.474;2023-03-01T04:05:10;6.20;;;4.53;;
45784;SDS011;31489;51.404;5.474;2023-03-01T04:07:37;6.55;;;5.10;;
45784;SDS011;31489;51.404;5.474;2023-03-01T04:10:04;5.72;;;4.47;;
45784;SDS011;31489;51.404;5.474;2023-03-01T04:12:32;8.02;;;5.45;;
45784;SDS011;31489;51.404;5.474;2023-03-01T04:14:59;8.93;;;5.40;;
45784;SDS011;31489;51.404;5.474;2023-03-01T04:17:25;8.80;;;4.80;;
45784;SDS011;31489;51.404;5.474;2023-03-01T04:19:51;5.95;;;4.88;;
45784;SDS011;31489;51.404;5.474;2023-03-01T04:22:16;8.27;;;4.95;;
45784;SDS011;31489;51.404;5.474;2023-03-01T04:24:43;8.30;;;4.68;;
45784;SDS011;31489;51.404;5.474;2023-03-01T04:27:10;7.57;;;5.03;;
45784;SDS011;31489;51.404;5.474;2023-03-01T04:29:36;9.68;;;5.10;;
45784;SDS011;31489;51.404;5.474;2023-03-01T04:32:02;6.50;;;4.95;;
45784;SDS011;31489;51.404;5.474;2023-03-01T04:34:28;8.38;;;5.13;;
45784;SDS011;31489;51.404;5.474;2023-03-01T04:36:54;7.50;;;5.03;;
45784;SDS011;31489;51.404;5.474;2023-03-01T04:39:20;6.97;;;5.15;;
45784;SDS011;31489;51.404;5.474;2023-03-01T04:41:46;10.18;;;4.65;;
45784;SDS011;31489;51.404;5.474;2023-03-01T04:44:12;5.95;;;4.55;;
45784;SDS011;31489;51.404;5.474;2023-03-01T04:46:37;10.70;;;5.35;;
45784;SDS011;31489;51.404;5.474;2023-03-01T04:49:03;6.43;;;4.90;;
45784;SDS011;31489;51.404;5.474;2023-03-01T04:51:30;6.88;;;5.07;;
45784;SDS011;31489;51.404;5.474;2023-03-01T04:53:57;7.95;;;4.63;;
45784;SDS011;31489;51.404;5.474;2023-03-01T04:56:23;9.85;;;5.38;;
45784;SDS011;31489;51.404;5.474;2023-03-01T04:58:48;6.70;;;5.13;;
45784;SDS011;31489;51.404;5.474;2023-03-01T05:01:16;6.93;;;5.20;;
45784;SDS011;31489;51.404;5.474;2023-03-01T05:03:44;7.15;;;5.35;;
45784;SDS011;31489;51.404;5.474;2023-03-01T05:06:11;6.95;;;5.30;;
45784;SDS011;31489;51.404;5.474;2023-03-01T05:08:38;6.40;;;4.90;;
45784;SDS011;31489;51.404;5.474;2023-03-01T05:11:04;7.43;;;5.30;;
45784;SDS011;31489;51.404;5.474;2023-03-01T05:13:30;6.35;;;4.68;;
45784;SDS011;31489;51.404;5.474;2023-03-01T05:15:57;8.15;;;5.30;;
45784;SDS011;31489;51.404;5.474;2023-03-01T05:18:25;9.02;;;5.28;;
45784;SDS011;31489;51.404;5.474;2023-03-01T05:20:52;6.47;;;5.22;;
45784;SDS011;31489;51.404;5.474;2023-03-01T05:23:23;8.05;;;5.70;;
45784;SDS011;31489;51.404;5.474;2023-03-01T05:25:50;6.43;;;5.18;;
45784;SDS011;31489;51.404;5.474;2023-03-01T05:28:17;7.72;;;5.53;;
45784;SDS011;31489;51.404;5.474;2023-03-01T05:30:44;8.02;;;5.40;;
45784;SDS011;31489;51.404;5.474;2023-03-01T05:33:10;9.85;;;5.97;;
45784;SDS011;31489;51.404;5.474;2023-03-01T05:35:39;6.93;;;5.43;;
45784;SDS011;31489;51.404;5.474;2023-03-01T05:38:09;8.35;;;5.55;;
45784;SDS011;31489;51.404;5.474;2023-03-01T05:40:38;8.10;;;5.60;;
45784;SDS011;31489;51.404;5.474;2023-03-01T05:43:05;10.60;;;5.65;;
45784;SDS011;31489;51.404;5.474;2023-03-01T05:45:31;10.20;;;6.18;;
45784;SDS011;31489;51.404;5.474;2023-03-01T05:47:57;10.75;;;6.75;;
45784;SDS011;31489;51.404;5.474;2023-03-01T05:50:27;7.93;;;5.22;;
45784;SDS011;31489;51.404;5.474;2023-03-01T05:52:58;7.95;;;6.00;;
45784;SDS011;31489;51.404;5.474;2023-03-01T05:55:25;8.15;;;5.75;;
45784;SDS011;31489;51.404;5.474;2023-03-01T05:57:52;13.60;;;6.18;;
45784;SDS011;31489;51.404;5.474;2023-03-01T06:00:18;8.48;;;6.05;;
45784;SDS011;31489;51.404;5.474;2023-03-01T06:02:47;12.15;;;7.38;;
45784;SDS011;31489;51.404;5.474;2023-03-01T06:05:13;9.02;;;6.75;;
45784;SDS011;31489;51.404;5.474;2023-03-01T06:07:39;11.27;;;6.40;;
45784;SDS011;31489;51.404;5.474;2023-03-01T06:10:05;10.05;;;6.00;;
45784;SDS011;31489;51.404;5.474;2023-03-01T06:12:35;8.65;;;6.50;;
45784;SDS011;31489;51.404;5.474;2023-03-01T06:15:02;9.23;;;6.15;;
45784;SDS011;31489;51.404;5.474;2023-03-01T06:17:30;7.65;;;5.70;;
45784;SDS011;31489;51.404;5.474;2023-03-01T06:19:57;7.18;;;5.60;;
45784;SDS011;31489;51.404;5.474;2023-03-01T06:22:23;8.07;;;5.63;;
45784;SDS011;31489;51.404;5.474;2023-03-01T06:24:49;8.73;;;6.40;;
45784;SDS011;31489;51.404;5.474;2023-03-01T06:27:14;8.57;;;6.43;;
45784;SDS011;31489;51.404;5.474;2023-03-01T06:29:40;7.72;;;5.80;;
45784;SDS011;31489;51.404;5.474;2023-03-01T06:32:06;8.57;;;6.45;;
45784;SDS011;31489;51.404;5.474;2023-03-01T06:34:33;12.48;;;6.72;;
45784;SDS011;31489;51.404;5.474;2023-03-01T06:36:58;9.38;;;6.50;;
45784;SDS011;31489;51.404;5.474;2023-03-01T06:39:24;7.85;;;5.60;;
45784;SDS011;31489;51.404;5.474;2023-03-01T06:41:50;10.15;;;6.05;;
45784;SDS011;31489;51.404;5.474;2023-03-01T06:44:15;8.68;;;6.95;;
45784;SDS011;31489;51.404;5.474;2023-03-01T06:46:41;14.35;;;6.68;;
45784;SDS011;31489;51.404;5.474;2023-03-01T06:49:07;10.75;;;6.25;;
45784;SDS011;31489;51.404;5.474;2023-03-01T06:51:35;9.60;;;6.55;;
45784;SDS011;31489;51.404;5.474;2023-03-01T06:54:02;9.57;;;6.72;;
45784;SDS011;31489;51.404;5.474;2023-03-01T06:56:29;9.45;;;7.05;;
45784;SDS011;31489;51.404;5.474;2023-03-01T06:58:54;10.35;;;6.90;;
45784;SDS011;31489;51.404;5.474;2023-03-01T07:01:20;9.73;;;6.30;;
45784;SDS011;31489;51.404;5.474;2023-03-01T07:03:46;9.27;;;5.70;;
45784;SDS011;31489;51.404;5.474;2023-03-01T07:06:11;9.15;;;6.70;;
45784;SDS011;31489;51.404;5.474;2023-03-01T07:08:37;12.95;;;7.13;;
45784;SDS011;31489;51.404;5.474;2023-03-01T07:11:03;8.90;;;6.72;;
45784;SDS011;31489;51.404;5.474;2023-03-01T07:13:29;10.02;;;6.28;;
45784;SDS011;31489;51.404;5.474;2023-03-01T07:15:55;7.68;;;6.20;;
45784;SDS011;31489;51.404;5.474;2023-03-01T07:18:20;8.45;;;6.15;;
45784;SDS011;31489;51.404;5.474;2023-03-01T07:20:46;8.57;;;6.47;;
45784;SDS011;31489;51.404;5.474;2023-03-01T07:23:12;10.25;;;6.43;;
45784;SDS011;31489;51.404;5.474;2023-03-01T07:25:37;9.55;;;6.20;;
45784;SDS011;31489;51.404;5.474;2023-03-01T07:28:03;8.32;;;5.80;;
45784;SDS011;31489;51.404;5.474;2023-03-01T07:30:29;9.07;;;6.50;;
45784;SDS011;31489;51.404;5.474;2023-03-01T07:32:56;10.02;;;6.00;;
45784;SDS011;31489;51.404;5.474;2023-03-01T07:35:23;12.52;;;6.53;;
45784;SDS011;31489;51.404;5.474;2023-03-01T07:37:50;13.35;;;7.25;;
45784;SDS011;31489;51.404;5.474;2023-03-01T07:40:16;12.27;;;6.80;;
45784;SDS011;31489;51.404;5.474;2023-03-01T07:42:42;8.77;;;6.28;;
45784;SDS011;31489;51.404;5.474;2023-03-01T07:45:07;11.02;;;7.22;;
45784;SDS011;31489;51.404;5.474;2023-03-01T07:47:33;11.45;;;7.22;;
45784;SDS011;31489;51.404;5.474;2023-03-01T07:49:59;11.25;;;6.80;;
45784;SDS011;31489;51.404;5.474;2023-03-01T07:52:26;9.95;;;6.88;;
45784;SDS011;31489;51.404;5.474;2023-03-01T07:54:51;9.85;;;6.75;;
45784;SDS011;31489;51.404;5.474;2023-03-01T07:57:17;10.15;;;7.55;;
45784;SDS011;31489;51.404;5.474;2023-03-01T07:59:43;13.40;;;7.18;;
45784;SDS011;31489;51.404;5.474;2023-03-01T08:02:10;10.57;;;7.00;;
45784;SDS011;31489;51.404;5.474;2023-03-01T08:04:36;9.82;;;6.63;;
45784;SDS011;31489;51.404;5.474;2023-03-01T08:07:04;10.35;;;6.50;;
45784;SDS011;31489;51.404;5.474;2023-03-01T08:09:33;9.27;;;6.57;;
45784;SDS011;31489;51.404;5.474;2023-03-01T08:12:01;9.13;;;6.18;;
45784;SDS011;31489;51.404;5.474;2023-03-01T08:14:26;9.52;;;5.85;;
45784;SDS011;31489;51.404;5.474;2023-03-01T08:16:52;12.18;;;6.18;;
45784;SDS011;31489;51.404;5.474;2023-03-01T08:19:18;9.07;;;6.25;;
45784;SDS011;31489;51.404;5.474;2023-03-01T08:21:44;12.07;;;5.93;;
45784;SDS011;31489;51.404;5.474;2023-03-01T08:24:09;15.35;;;6.35;;
45784;SDS011;31489;51.404;5.474;2023-03-01T08:26:35;7.68;;;6.22;;
45784;SDS011;31489;51.404;5.474;2023-03-01T08:29:01;8.60;;;6.18;;
45784;SDS011;31489;51.404;5.474;2023-03-01T08:31:29;7.90;;;5.55;;
45784;SDS011;31489;51.404;5.474;2023-03-01T08:33:58;10.02;;;6.18;;
45784;SDS011;31489;51.404;5.474;2023-03-01T08:36:30;10.38;;;6.13;;
45784;SDS011;31489;51.404;5.474;2023-03-01T08:38:58;7.93;;;5.78;;
45784;SDS011;31489;51.404;5.474;2023-03-01T08:41:23;13.10;;;6.05;;
45784;SDS011;31489;51.404;5.474;2023-03-01T08:43:49;7.78;;;5.60;;
45784;SDS011;31489;51.404;5.474;2023-03-01T08:46:15;7.85;;;5.70;;
45784;SDS011;31489;51.404;5.474;2023-03-01T08:48:41;7.03;;;5.80;;
45784;SDS011;31489;51.404;5.474;2023-03-01T08:51:10;9.00;;;5.82;;
45784;SDS011;31489;51.404;5.474;2023-03-01T08:53:37;10.02;;;6.10;;
45784;SDS011;31489;51.404;5.474;2023-03-01T08:56:03;9.27;;;5.82;;
45784;SDS011;31489;51.404;5.474;2023-03-01T08:58:29;8.70;;;5.35;;
45784;SDS011;31489;51.404;5.474;2023-03-01T09:00:55;7.13;;;5.10;;
45784;SDS011;31489;51.404;5.474;2023-03-01T09:03:21;7.75;;;5.30;;
45784;SDS011;31489;51.404;5.474;2023-03-01T09:05:48;6.45;;;4.85;;
45784;SDS011;31489;51.404;5.474;2023-03-01T09:08:15;7.30;;;5.10;;
45784;SDS011;31489;51.404;5.474;2023-03-01T09:10:41;7.13;;;5.07;;
45784;SDS011;31489;51.404;5.474;2023-03-01T09:13:07;7.97;;;5.10;;
45784;SDS011;31489;51.404;5.474;2023-03-01T09:15:33;7.97;;;5.45;;
45784;SDS011;31489;51.404;5.474;2023-03-01T09:18:01;6.00;;;4.93;;
45784;SDS011;31489;51.404;5.474;2023-03-01T09:20:27;6.85;;;4.65;;
45784;SDS011;31489;51.404;5.474;2023-03-01T09:22:52;6.82;;;5.00;;
45784;SDS011;31489;51.404;5.474;2023-03-01T09:25:18;10.63;;;5.53;;
45784;SDS011;31489;51.404;5.474;2023-03-01T09:27:44;7.72;;;5.72;;
45784;SDS011;31489;51.404;5.474;2023-03-01T09:30:09;7.25;;;5.50;;
45784;SDS011;31489;51.404;5.474;2023-03-01T09:32:36;9.63;;;5.65;;
45784;SDS011;31489;51.404;5.474;2023-03-01T09:35:04;6.28;;;5.13;;
45784;SDS011;31489;51.404;5.474;2023-03-01T09:37:33;8.63;;;5.70;;
45784;SDS011;31489;51.404;5.474;2023-03-01T09:40:00;6.63;;;4.72;;
45784;SDS011;31489;51.404;5.474;2023-03-01T09:42:27;8.40;;;5.05;;
45784;SDS011;31489;51.404;5.474;2023-03-01T09:44:58;8.82;;;5.45;;
45784;SDS011;31489;51.404;5.474;2023-03-01T09:47:33;7.72;;;5.50;;
45784;SDS011;31489;51.404;5.474;2023-03-01T09:52:43;7.93;;;4.72;;
45784;SDS011;31489;51.404;5.474;2023-03-01T09:55:11;9.98;;;5.97;;
45784;SDS011;31489;51.404;5.474;2023-03-01T10:00:50;7.05;;;5.38;;
45784;SDS011;31489;51.404;5.474;2023-03-01T10:03:16;11.02;;;6.25;;
45784;SDS011;31489;51.404;5.474;2023-03-01T10:08:27;9.25;;;6.50;;
45784;SDS011;31489;51.404;5.474;2023-03-01T10:11:01;9.68;;;6.65;;
45784;SDS011;31489;51.404;5.474;2023-03-01T10:13:34;9.68;;;7.15;;
45784;SDS011;31489;51.404;5.474;2023-03-01T10:18:46;9.02;;;6.05;;
45784;SDS011;31489;51.404;5.474;2023-03-01T10:21:19;8.32;;;6.25;;
45784;SDS011;31489;51.404;5.474;2023-03-01T10:23:49;8.60;;;6.25;;
45784;SDS011;31489;51.404;5.474;2023-03-01T10:29:06;8.90;;;5.68;;
45784;SDS011;31489;51.404;5.474;2023-03-01T10:31:38;8.38;;;5.82;;
45784;SDS011;31489;51.404;5.474;2023-03-01T10:34:48;9.35;;;5.82;;
45784;SDS011;31489;51.404;5.474;2023-03-01T10:39:35;6.78;;;5.43;;
45784;SDS011;31489;51.404;5.474;2023-03-01T10:42:05;8.02;;;6.03;;
45784;SDS011;31489;51.404;5.474;2023-03-01T10:47:44;7.72;;;5.15;;
45784;SDS011;31489;51.404;5.474;2023-03-01T10:50:20;7.00;;;5.72;;
45784;SDS011;31489;51.404;5.474;2023-03-01T10:52:59;8.35;;;5.65;;
45784;SDS011;31489;51.404;5.474;2023-03-01T10:55:34;6.70;;;5.28;;
45784;SDS011;31489;51.404;5.474;2023-03-01T10:58:11;6.60;;;5.45;;
45784;SDS011;31489;51.404;5.474;2023-03-01T11:00:48;8.35;;;5.25;;
45784;SDS011;31489;51.404;5.474;2023-03-01T11:03:34;6.18;;;5.00;;
45784;SDS011;31489;51.404;5.474;2023-03-01T11:06:08;7.85;;;5.32;;
45784;SDS011;31489;51.404;5.474;2023-03-01T11:08:51;5.45;;;4.90;;
45784;SDS011;31489;51.404;5.474;2023-03-01T11:11:23;5.90;;;4.68;;
45784;SDS011;31489;51.404;5.474;2023-03-01T11:14:06;6.22;;;5.05;;
45784;SDS011;31489;51.404;5.474;2023-03-01T11:16:46;7.40;;;4.90;;
45784;SDS011;31489;51.404;5.474;2023-03-01T11:19:15;6.05;;;4.75;;
45784;SDS011;31489;51.404;5.474;2023-03-01T11:22:03;6.85;;;5.35;;
45784;SDS011;31489;51.404;5.474;2023-03-01T11:24:48;5.15;;;4.60;;
45784;SDS011;31489;51.404;5.474;2023-03-01T11:27:18;5.55;;;4.55;;
45784;SDS011;31489;51.404;5.474;2023-03-01T11:29:46;7.60;;;4.90;;
45784;SDS011;31489;51.404;5.474;2023-03-01T11:32:27;6.30;;;5.57;;
45784;SDS011;31489;51.404;5.474;2023-03-01T11:35:01;7.35;;;5.20;;
45784;SDS011;31489;51.404;5.474;2023-03-01T11:40:27;6.15;;;4.28;;
45784;SDS011;31489;51.404;5.474;2023-03-01T11:48:30;5.90;;;4.53;;
45784;SDS011;31489;51.404;5.474;2023-03-01T11:57:51;6.25;;;4.60;;
45784;SDS011;31489;51.404;5.474;2023-03-01T12:00:17;8.65;;;4.90;;
45784;SDS011;31489;51.404;5.474;2023-03-01T12:02:58;4.78;;;3.92;;
45784;SDS011;31489;51.404;5.474;2023-03-01T12:08:20;5.00;;;4.22;;
45784;SDS011;31489;51.404;5.474;2023-03-01T12:19:24;4.95;;;4.00;;
45784;SDS011;31489;51.404;5.474;2023-03-01T12:22:17;4.65;;;3.92;;
45784;SDS011;31489;51.404;5.474;2023-03-01T12:25:02;5.18;;;3.75;;
45784;SDS011;31489;51.404;5.474;2023-03-01T12:30:41;5.60;;;4.10;;
45784;SDS011;31489;51.404;5.474;2023-03-01T12:47:40;5.30;;;4.30;;
45784;SDS011;31489;51.404;5.474;2023-03-01T12:50:44;4.88;;;3.55;;
45784;SDS011;31489;51.404;5.474;2023-03-01T12:53:20;4.55;;;3.83;;
45784;SDS011;31489;51.404;5.474;2023-03-01T12:55:51;4.45;;;3.88;;
45784;SDS011;31489;51.404;5.474;2023-03-01T13:01:14;5.25;;;3.95;;
45784;SDS011;31489;51.404;5.474;2023-03-01T13:06:44;5.22;;;4.18;;
45784;SDS011;31489;51.404;5.474;2023-03-01T13:11:58;6.05;;;4.40;;
45784;SDS011;31489;51.404;5.474;2023-03-01T13:16:51;5.32;;;4.10;;
45784;SDS011;31489;51.404;5.474;2023-03-01T13:19:18;6.30;;;4.35;;
45784;SDS011;31489;51.404;5.474;2023-03-01T13:21:45;5.63;;;4.40;;
45784;SDS011;31489;51.404;5.474;2023-03-01T13:24:27;6.45;;;4.80;;
45784;SDS011;31489;51.404;5.474;2023-03-01T13:29:46;4.13;;;3.70;;
45784;SDS011;31489;51.404;5.474;2023-03-01T13:32:23;5.78;;;4.13;;
45784;SDS011;31489;51.404;5.474;2023-03-01T13:34:58;4.93;;;3.83;;
45784;SDS011;31489;51.404;5.474;2023-03-01T13:37:36;6.15;;;4.22;;
45784;SDS011;31489;51.404;5.474;2023-03-01T13:42:50;4.82;;;4.22;;
45784;SDS011;31489;51.404;5.474;2023-03-01T13:47:58;6.35;;;3.80;;
45784;SDS011;31489;51.404;5.474;2023-03-01T13:50:28;5.32;;;3.88;;
45784;SDS011;31489;51.404;5.474;2023-03-01T13:52:59;5.38;;;3.92;;
45784;SDS011;31489;51.404;5.474;2023-03-01T13:55:51;6.25;;;4.55;;
45784;SDS011;31489;51.404;5.474;2023-03-01T14:01:00;5.55;;;4.05;;
45784;SDS011;31489;51.404;5.474;2023-03-01T14:03:28;5.65;;;3.78;;
45784;SDS011;31489;51.404;5.474;2023-03-01T14:08:35;4.72;;;3.50;;
45784;SDS011;31489;51.404;5.474;2023-03-01T14:16:43;4.97;;;3.38;;
45784;SDS011;31489;51.404;5.474;2023-03-01T14:19:35;5.78;;;3.47;;
45784;SDS011;31489;51.404;5.474;2023-03-01T14:24:54;7.15;;;4.40;;
45784;SDS011;31489;51.404;5.474;2023-03-01T14:27:25;3.90;;;3.50;;
45784;SDS011;31489;51.404;5.474;2023-03-01T14:29:59;5.60;;;4.25;;
45784;SDS011;31489;51.404;5.474;2023-03-01T14:32:28;5.15;;;4.43;;
45784;SDS011;31489;51.404;5.474;2023-03-01T14:34:58;5.65;;;4.07;;
45784;SDS011;31489;51.404;5.474;2023-03-01T14:37:29;8.30;;;4.47;;
45784;SDS011;31489;51.404;5.474;2023-03-01T14:39:59;4.40;;;3.70;;
45784;SDS011;31489;51.404;5.474;2023-03-01T14:42:28;4.55;;;3.67;;
45784;SDS011;31489;51.404;5.474;2023-03-01T14:44:56;6.63;;;4.15;;
45784;SDS011;31489;51.404;5.474;2023-03-01T14:47:29;5.35;;;4.18;;
45784;SDS011;31489;51.404;5.474;2023-03-01T14:50:05;5.88;;;4.53;;
45784;SDS011;31489;51.404;5.474;2023-03-01T14:52:48;5.32;;;4.20;;
45784;SDS011;31489;51.404;5.474;2023-03-01T14:55:21;5.40;;;4.25;;
45784;SDS011;31489;51.404;5.474;2023-03-01T14:58:02;5.10;;;4.05;;
45784;SDS011;31489;51.404;5.474;2023-03-01T15:00:30;5.10;;;4.25;;
45784;SDS011;31489;51.404;5.474;2023-03-01T15:03:00;4.93;;;4.35;;
45784;SDS011;31489;51.404;5.474;2023-03-01T15:05:38;5.65;;;4.25;;
45784;SDS011;31489;51.404;5.474;2023-03-01T15:08:06;4.40;;;4.00;;
45784;SDS011;31489;51.404;5.474;2023-03-01T15:10:33;4.82;;;4.18;;
45784;SDS011;31489;51.404;5.474;2023-03-01T15:13:12;5.75;;;4.60;;
45784;SDS011;31489;51.404;5.474;2023-03-01T15:15:46;7.68;;;4.30;;
45784;SDS011;31489;51.404;5.474;2023-03-01T15:18:24;6.00;;;4.43;;
45784;SDS011;31489;51.404;5.474;2023-03-01T15:20:53;5.03;;;4.30;;
45784;SDS011;31489;51.404;5.474;2023-03-01T15:23:26;5.65;;;4.60;;
45784;SDS011;31489;51.404;5.474;2023-03-01T15:25:56;6.65;;;5.00;;
45784;SDS011;31489;51.404;5.474;2023-03-01T15:28:27;8.18;;;4.30;;
45784;SDS011;31489;51.404;5.474;2023-03-01T15:31:00;6.53;;;4.80;;
45784;SDS011;31489;51.404;5.474;2023-03-01T15:33:34;5.65;;;4.35;;
45784;SDS011;31489;51.404;5.474;2023-03-01T15:36:02;6.32;;;4.57;;
45784;SDS011;31489;51.404;5.474;2023-03-01T15:38:55;6.70;;;4.78;;
45784;SDS011;31489;51.404;5.474;2023-03-01T15:41:27;6.30;;;4.32;;
45784;SDS011;31489;51.404;5.474;2023-03-01T15:43:59;7.10;;;4.57;;
45784;SDS011;31489;51.404;5.474;2023-03-01T15:46:39;6.43;;;4.93;;
45784;SDS011;31489;51.404;5.474;2023-03-01T15:49:06;5.72;;;5.05;;
45784;SDS011;31489;51.404;5.474;2023-03-01T15:51:51;10.43;;;5.05;;
45784;SDS011;31489;51.404;5.474;2023-03-01T15:54:20;5.90;;;5.00;;
45784;SDS011;31489;51.404;5.474;2023-03-01T15:56:48;6.72;;;4.80;;
45784;SDS011;31489;51.404;5.474;2023-03-01T15:59:14;10.60;;;5.68;;
45784;SDS011;31489;51.404;5.474;2023-03-01T16:01:43;8.80;;;5.65;;
45784;SDS011;31489;51.404;5.474;2023-03-01T16:04:10;6.80;;;5.30;;
45784;SDS011;31489;51.404;5.474;2023-03-01T16:06:47;6.13;;;4.85;;
45784;SDS011;31489;51.404;5.474;2023-03-01T16:09:21;9.75;;;5.38;;
45784;SDS011;31489;51.404;5.474;2023-03-01T16:11:48;7.40;;;4.82;;
45784;SDS011;31489;51.404;5.474;2023-03-01T16:14:14;7.97;;;5.13;;
45784;SDS011;31489;51.404;5.474;2023-03-01T16:16:41;6.45;;;5.30;;
45784;SDS011;31489;51.404;5.474;2023-03-01T16:19:07;6.85;;;5.22;;
45784;SDS011;31489;51.404;5.474;2023-03-01T16:21:33;6.05;;;5.07;;
45784;SDS011;31489;51.404;5.474;2023-03-01T16:24:00;7.35;;;4.93;;
45784;SDS011;31489;51.404;5.474;2023-03-01T16:26:26;7.18;;;5.68;;
45784;SDS011;31489;51.404;5.474;2023-03-01T16:28:54;7.63;;;5.80;;
45784;SDS011;31489;51.404;5.474;2023-03-01T16:31:21;9.77;;;5.13;;
45784;SDS011;31489;51.404;5.474;2023-03-01T16:33:47;6.68;;;5.07;;
45784;SDS011;31489;51.404;5.474;2023-03-01T16:36:15;7.25;;;6.00;;
45784;SDS011;31489;51.404;5.474;2023-03-01T16:38:42;7.22;;;5.80;;
45784;SDS011;31489;51.404;5.474;2023-03-01T16:41:13;9.13;;;5.75;;
45784;SDS011;31489;51.404;5.474;2023-03-01T16:43:44;6.47;;;5.57;;
45784;SDS011;31489;51.404;5.474;2023-03-01T16:46:12;7.82;;;5.78;;
45784;SDS011;31489;51.404;5.474;2023-03-01T16:48:40;7.18;;;5.30;;
45784;SDS011;31489;51.404;5.474;2023-03-01T16:51:06;7.47;;;5.78;;
45784;SDS011;31489;51.404;5.474;2023-03-01T16:53:33;7.13;;;5.70;;
45784;SDS011;31489;51.404;5.474;2023-03-01T16:56:03;7.18;;;5.32;;